Limavady, United Kingdom
Current Conditions -  °F | °C
As of 3:20 PM on Wednesday 28 Jan 2015 (Local Time) from EGAE Reporting Station
Rain Showers Rain Showers  
Wind Chill: 27°   Ceiling: 1700
Heat Index: 37°   Visibility: 6mi
Dew Point: 34°   Wind: 21mph
Humidity: 87%   Direction: 250°WSW
Pressure: 29.38"   Gusts: NA
Location:  55.05°N, 6.95°W
Report Text: EGAE 281520Z 25018KT 9000 -SHRA FEW007 BKN017 03/01 Q0995
Loading
Personal Weather Stations






























Interactive Weather Map New forecast layout! Learn more

10-Day Weather Forecast

Advertisements
Track Severe Weather on mobile